sensor_id;sensor_type;location;lat;lon;timestamp;pressure;altitude;pressure_sealevel;temperature;humidity
72721;BME280;60835;50.974;10.322;2024-02-21T00:01:21;98979.06;;;8.03;100.00
72721;BME280;60835;50.974;10.322;2024-02-21T00:03:52;98982.41;;;8.05;100.00
72721;BME280;60835;50.974;10.322;2024-02-21T00:06:19;98984.31;;;8.03;100.00
72721;BME280;60835;50.974;10.322;2024-02-21T00:08:46;98984.91;;;8.07;100.00
72721;BME280;60835;50.974;10.322;2024-02-21T00:11:13;98984.56;;;8.00;100.00
72721;BME280;60835;50.974;10.322;2024-02-21T00:13:41;98993.47;;;7.99;100.00
72721;BME280;60835;50.974;10.322;2024-02-21T00:16:08;98980.50;;;8.07;100.00
72721;BME280;60835;50.974;10.322;2024-02-21T00:18:37;98983.38;;;8.04;100.00
72721;BME280;60835;50.974;10.322;2024-02-21T00:21:13;98975.22;;;8.07;100.00
72721;BME280;60835;50.974;10.322;2024-02-21T00:23:45;98956.50;;;8.10;100.00
72721;BME280;60835;50.974;10.322;2024-02-21T00:26:20;98914.00;;;7.83;100.00
72721;BME280;60835;50.974;10.322;2024-02-21T00:28:48;98952.94;;;8.00;100.00
72721;BME280;60835;50.974;10.322;2024-02-21T00:31:15;98949.97;;;8.05;100.00
72721;BME280;60835;50.974;10.322;2024-02-21T00:33:44;98932.31;;;8.05;100.00
72721;BME280;60835;50.974;10.322;2024-02-21T00:36:20;98928.88;;;8.05;100.00
72721;BME280;60835;50.974;10.322;2024-02-21T00:38:47;98943.84;;;8.04;100.00
72721;BME280;60835;50.974;10.322;2024-02-21T00:41:14;98940.13;;;8.07;100.00
72721;BME280;60835;50.974;10.322;2024-02-21T00:43:41;98943.00;;;8.04;100.00
72721;BME280;60835;50.974;10.322;2024-02-21T00:46:12;98949.44;;;8.11;100.00
72721;BME280;60835;50.974;10.322;2024-02-21T00:48:47;98934.97;;;8.05;100.00
72721;BME280;60835;50.974;10.322;2024-02-21T00:51:17;98926.34;;;8.03;100.00
72721;BME280;60835;50.974;10.322;2024-02-21T00:53:47;98914.41;;;7.99;100.00
72721;BME280;60835;50.974;10.322;2024-02-21T00:56:17;98914.88;;;8.04;100.00
72721;BME280;60835;50.974;10.322;2024-02-21T00:58:52;98898.81;;;8.07;100.00
72721;BME280;60835;50.974;10.322;2024-02-21T01:01:25;98895.97;;;7.99;100.00
72721;BME280;60835;50.974;10.322;2024-02-21T01:03:53;98888.31;;;7.96;100.00
72721;BME280;60835;50.974;10.322;2024-02-21T01:06:22;98867.06;;;7.77;100.00
72721;BME280;60835;50.974;10.322;2024-02-21T01:08:50;98857.44;;;7.87;100.00
72721;BME280;60835;50.974;10.322;2024-02-21T01:11:17;98859.97;;;7.88;100.00
72721;BME280;60835;50.974;10.322;2024-02-21T01:13:45;98847.69;;;7.78;100.00
72721;BME280;60835;50.974;10.322;2024-02-21T01:16:12;98821.84;;;7.72;100.00
72721;BME280;60835;50.974;10.322;2024-02-21T01:18:39;98829.69;;;7.83;100.00
72721;BME280;60835;50.974;10.322;2024-02-21T01:21:10;98833.22;;;7.72;100.00
72721;BME280;60835;50.974;10.322;2024-02-21T01:23:37;98835.50;;;7.66;100.00
72721;BME280;60835;50.974;10.322;2024-02-21T01:26:07;98838.81;;;7.79;100.00
72721;BME280;60835;50.974;10.322;2024-02-21T01:28:35;98826.88;;;7.75;100.00
72721;BME280;60835;50.974;10.322;2024-02-21T01:31:10;98826.41;;;7.70;100.00
72721;BME280;60835;50.974;10.322;2024-02-21T01:33:38;98827.38;;;7.69;100.00
72721;BME280;60835;50.974;10.322;2024-02-21T01:36:25;98813.25;;;7.70;100.00
72721;BME280;60835;50.974;10.322;2024-02-21T01:38:56;98821.41;;;7.67;100.00
72721;BME280;60835;50.974;10.322;2024-02-21T01:41:24;98814.19;;;7.69;100.00
72721;BME280;60835;50.974;10.322;2024-02-21T01:43:51;98834.31;;;7.70;100.00
72721;BME280;60835;50.974;10.322;2024-02-21T01:46:18;98821.34;;;7.78;100.00
72721;BME280;60835;50.974;10.322;2024-02-21T01:48:46;98823.72;;;7.81;100.00
72721;BME280;60835;50.974;10.322;2024-02-21T01:51:16;98827.63;;;7.86;100.00
72721;BME280;60835;50.974;10.322;2024-02-21T01:53:44;98833.53;;;7.79;100.00
72721;BME280;60835;50.974;10.322;2024-02-21T01:56:12;98819.91;;;7.74;100.00
72721;BME280;60835;50.974;10.322;2024-02-21T01:58:56;98828.81;;;7.73;100.00
72721;BME280;60835;50.974;10.322;2024-02-21T02:01:24;98824.94;;;7.77;100.00
72721;BME280;60835;50.974;10.322;2024-02-21T02:03:52;98835.97;;;7.71;100.00
72721;BME280;60835;50.974;10.322;2024-02-21T02:06:20;98816.84;;;7.69;100.00
72721;BME280;60835;50.974;10.322;2024-02-21T02:08:49;98810.38;;;7.73;100.00
72721;BME280;60835;50.974;10.322;2024-02-21T02:11:18;98807.19;;;7.79;100.00
72721;BME280;60835;50.974;10.322;2024-02-21T02:13:46;98796.78;;;7.57;100.00
72721;BME280;60835;50.974;10.322;2024-02-21T02:16:14;98802.72;;;7.70;100.00
72721;BME280;60835;50.974;10.322;2024-02-21T02:18:46;98808.22;;;7.67;100.00
72721;BME280;60835;50.974;10.322;2024-02-21T02:21:23;98798.44;;;7.58;100.00
72721;BME280;60835;50.974;10.322;2024-02-21T02:23:52;98806.34;;;7.58;100.00
72721;BME280;60835;50.974;10.322;2024-02-21T02:26:26;98797.34;;;7.60;100.00
72721;BME280;60835;50.974;10.322;2024-02-21T02:28:54;98786.81;;;7.60;100.00
72721;BME280;60835;50.974;10.322;2024-02-21T02:31:22;98778.28;;;7.68;100.00
72721;BME280;60835;50.974;10.322;2024-02-21T02:33:50;98777.13;;;7.61;100.00
72721;BME280;60835;50.974;10.322;2024-02-21T02:36:23;98769.94;;;7.63;100.00
72721;BME280;60835;50.974;10.322;2024-02-21T02:38:52;98768.84;;;7.65;100.00
72721;BME280;60835;50.974;10.322;2024-02-21T02:41:22;98769.56;;;7.67;100.00
72721;BME280;60835;50.974;10.322;2024-02-21T02:43:49;98763.56;;;7.65;100.00
72721;BME280;60835;50.974;10.322;2024-02-21T02:46:19;98747.03;;;7.54;100.00
72721;BME280;60835;50.974;10.322;2024-02-21T02:48:48;98739.81;;;7.56;100.00
72721;BME280;60835;50.974;10.322;2024-02-21T02:51:16;98738.63;;;7.60;100.00
72721;BME280;60835;50.974;10.322;2024-02-21T02:53:43;98732.63;;;7.58;100.00
72721;BME280;60835;50.974;10.322;2024-02-21T02:56:16;98729.72;;;7.61;100.00
72721;BME280;60835;50.974;10.322;2024-02-21T02:58:43;98733.06;;;7.63;100.00
72721;BME280;60835;50.974;10.322;2024-02-21T03:01:20;98724.97;;;7.55;100.00
72721;BME280;60835;50.974;10.322;2024-02-21T03:03:52;98731.66;;;7.59;100.00
72721;BME280;60835;50.974;10.322;2024-02-21T03:06:19;98724.72;;;7.58;100.00
72721;BME280;60835;50.974;10.322;2024-02-21T03:08:46;98733.47;;;7.58;100.00
72721;BME280;60835;50.974;10.322;2024-02-21T03:11:16;98716.50;;;7.72;100.00
72721;BME280;60835;50.974;10.322;2024-02-21T03:13:44;98714.13;;;7.69;100.00
72721;BME280;60835;50.974;10.322;2024-02-21T03:16:16;98711.75;;;7.66;100.00
72721;BME280;60835;50.974;10.322;2024-02-21T03:18:46;98703.84;;;7.66;100.00
72721;BME280;60835;50.974;10.322;2024-02-21T03:21:21;98696.84;;;7.76;100.00
72721;BME280;60835;50.974;10.322;2024-02-21T03:23:48;98694.50;;;7.73;100.00
72721;BME280;60835;50.974;10.322;2024-02-21T03:26:15;98684.03;;;7.62;100.00
72721;BME280;60835;50.974;10.322;2024-02-21T03:28:53;98670.72;;;7.63;100.00
72721;BME280;60835;50.974;10.322;2024-02-21T03:31:20;98671.75;;;7.72;100.00
72721;BME280;60835;50.974;10.322;2024-02-21T03:33:50;98675.72;;;7.66;100.00
72721;BME280;60835;50.974;10.322;2024-02-21T03:36:21;98656.72;;;7.63;100.00
72721;BME280;60835;50.974;10.322;2024-02-21T03:38:52;98648.03;;;7.72;100.00
72721;BME280;60835;50.974;10.322;2024-02-21T03:41:21;98658.81;;;7.69;100.00
72721;BME280;60835;50.974;10.322;2024-02-21T03:43:49;98655.50;;;7.67;100.00
72721;BME280;60835;50.974;10.322;2024-02-21T03:46:17;98665.78;;;7.70;100.00
72721;BME280;60835;50.974;10.322;2024-02-21T03:48:47;98658.31;;;7.75;100.00
72721;BME280;60835;50.974;10.322;2024-02-21T03:51:17;98658.56;;;7.72;100.00
72721;BME280;60835;50.974;10.322;2024-02-21T03:53:44;98661.34;;;7.70;100.00
72721;BME280;60835;50.974;10.322;2024-02-21T03:56:11;98662.69;;;7.65;100.00
72721;BME280;60835;50.974;10.322;2024-02-21T03:58:38;98660.75;;;7.67;100.00
72721;BME280;60835;50.974;10.322;2024-02-21T04:01:08;98645.22;;;7.64;100.00
72721;BME280;60835;50.974;10.322;2024-02-21T04:03:44;98657.44;;;7.65;100.00
72721;BME280;60835;50.974;10.322;2024-02-21T04:06:14;98656.00;;;7.61;100.00
72721;BME280;60835;50.974;10.322;2024-02-21T04:08:42;98642.84;;;7.61;100.00
72721;BME280;60835;50.974;10.322;2024-02-21T04:11:23;98627.56;;;7.75;100.00
72721;BME280;60835;50.974;10.322;2024-02-21T04:13:51;98625.88;;;7.74;100.00
72721;BME280;60835;50.974;10.322;2024-02-21T04:16:31;98634.34;;;7.78;100.00
72721;BME280;60835;50.974;10.322;2024-02-21T04:19:00;98636.53;;;7.73;100.00
72721;BME280;60835;50.974;10.322;2024-02-21T04:21:29;98637.47;;;7.62;100.00
72721;BME280;60835;50.974;10.322;2024-02-21T04:23:59;98625.03;;;7.74;100.00
72721;BME280;60835;50.974;10.322;2024-02-21T04:26:26;98624.06;;;7.75;100.00
72721;BME280;60835;50.974;10.322;2024-02-21T04:28:53;98633.06;;;7.72;100.00
72721;BME280;60835;50.974;10.322;2024-02-21T04:31:22;98632.75;;;7.66;100.00
72721;BME280;60835;50.974;10.322;2024-02-21T04:33:49;98620.03;;;7.71;100.00
72721;BME280;60835;50.974;10.322;2024-02-21T04:36:23;98639.44;;;7.70;100.00
72721;BME280;60835;50.974;10.322;2024-02-21T04:38:51;98634.44;;;7.67;100.00
72721;BME280;60835;50.974;10.322;2024-02-21T04:41:21;98634.53;;;7.65;100.00
72721;BME280;60835;50.974;10.322;2024-02-21T04:43:48;98628.19;;;7.68;100.00
72721;BME280;60835;50.974;10.322;2024-02-21T04:46:16;98624.75;;;7.67;100.00
72721;BME280;60835;50.974;10.322;2024-02-21T04:48:44;98621.97;;;7.69;100.00
72721;BME280;60835;50.974;10.322;2024-02-21T04:51:16;98618.38;;;7.70;100.00
72721;BME280;60835;50.974;10.322;2024-02-21T04:53:52;98620.75;;;7.73;100.00
72721;BME280;60835;50.974;10.322;2024-02-21T04:56:22;98614.66;;;7.82;100.00
72721;BME280;60835;50.974;10.322;2024-02-21T04:58:49;98598.94;;;7.71;100.00
72721;BME280;60835;50.974;10.322;2024-02-21T05:01:22;98604.38;;;7.69;100.00
72721;BME280;60835;50.974;10.322;2024-02-21T05:03:53;98602.03;;;7.76;100.00
72721;BME280;60835;50.974;10.322;2024-02-21T05:06:46;98607.84;;;7.70;100.00
72721;BME280;60835;50.974;10.322;2024-02-21T05:09:14;98598.66;;;7.64;100.00
72721;BME280;60835;50.974;10.322;2024-02-21T05:11:41;98602.03;;;7.76;100.00
72721;BME280;60835;50.974;10.322;2024-02-21T05:14:08;98593.44;;;7.74;100.00
72721;BME280;60835;50.974;10.322;2024-02-21T05:16:36;98572.34;;;7.74;100.00
72721;BME280;60835;50.974;10.322;2024-02-21T05:19:04;98512.81;;;7.43;100.00
72721;BME280;60835;50.974;10.322;2024-02-21T05:21:31;98555.28;;;7.68;100.00
72721;BME280;60835;50.974;10.322;2024-02-21T05:24:00;98552.09;;;7.65;100.00
72721;BME280;60835;50.974;10.322;2024-02-21T05:26:33;98542.78;;;7.61;100.00
72721;BME280;60835;50.974;10.322;2024-02-21T05:29:01;98549.19;;;7.68;100.00
72721;BME280;60835;50.974;10.322;2024-02-21T05:31:56;98539.50;;;7.68;100.00
72721;BME280;60835;50.974;10.322;2024-02-21T05:34:29;98532.16;;;7.72;100.00
72721;BME280;60835;50.974;10.322;2024-02-21T05:36:59;98513.03;;;7.70;100.00
72721;BME280;60835;50.974;10.322;2024-02-21T05:39:27;98514.25;;;7.66;100.00
72721;BME280;60835;50.974;10.322;2024-02-21T05:41:56;98510.84;;;7.75;100.00
72721;BME280;60835;50.974;10.322;2024-02-21T05:44:23;98528.56;;;7.73;100.00
72721;BME280;60835;50.974;10.322;2024-02-21T05:46:50;98517.09;;;7.83;100.00
72721;BME280;60835;50.974;10.322;2024-02-21T05:49:18;98524.44;;;7.80;100.00
72721;BME280;60835;50.974;10.322;2024-02-21T05:51:46;98513.47;;;7.84;100.00
72721;BME280;60835;50.974;10.322;2024-02-21T05:54:27;98477.81;;;7.61;100.00
72721;BME280;60835;50.974;10.322;2024-02-21T05:56:57;98523.00;;;7.76;100.00
72721;BME280;60835;50.974;10.322;2024-02-21T05:59:24;98518.91;;;7.83;100.00
72721;BME280;60835;50.974;10.322;2024-02-21T06:01:59;98524.16;;;7.83;100.00
72721;BME280;60835;50.974;10.322;2024-02-21T06:04:26;98529.84;;;7.88;100.00
72721;BME280;60835;50.974;10.322;2024-02-21T06:06:53;98542.19;;;7.78;100.00
72721;BME280;60835;50.974;10.322;2024-02-21T06:09:20;98535.81;;;7.90;100.00
72721;BME280;60835;50.974;10.322;2024-02-21T06:11:47;98539.13;;;7.92;100.00
72721;BME280;60835;50.974;10.322;2024-02-21T06:14:17;98531.97;;;7.94;100.00
72721;BME280;60835;50.974;10.322;2024-02-21T06:16:45;98540.28;;;7.99;100.00
72721;BME280;60835;50.974;10.322;2024-02-21T06:19:12;98545.28;;;8.02;100.00
72721;BME280;60835;50.974;10.322;2024-02-21T06:21:38;98543.81;;;7.79;100.00
72721;BME280;60835;50.974;10.322;2024-02-21T06:24:05;98531.53;;;7.98;100.00
72721;BME280;60835;50.974;10.322;2024-02-21T06:26:41;98542.19;;;7.97;100.00
72721;BME280;60835;50.974;10.322;2024-02-21T06:29:08;98544.88;;;8.07;100.00
72721;BME280;60835;50.974;10.322;2024-02-21T06:31:35;98545.56;;;7.99;100.00
72721;BME280;60835;50.974;10.322;2024-02-21T06:34:03;98538.06;;;8.04;100.00
72721;BME280;60835;50.974;10.322;2024-02-21T06:36:32;98537.22;;;8.04;100.00
72721;BME280;60835;50.974;10.322;2024-02-21T06:39:02;98548.28;;;7.88;100.00
72721;BME280;60835;50.974;10.322;2024-02-21T06:41:34;98549.13;;;7.88;100.00
72721;BME280;60835;50.974;10.322;2024-02-21T06:44:03;98548.28;;;7.88;100.00
72721;BME280;60835;50.974;10.322;2024-02-21T06:46:30;98530.56;;;7.99;100.00
72721;BME280;60835;50.974;10.322;2024-02-21T06:49:05;98532.75;;;7.94;100.00
72721;BME280;60835;50.974;10.322;2024-02-21T06:51:44;98532.19;;;7.81;100.00
72721;BME280;60835;50.974;10.322;2024-02-21T06:54:11;98520.28;;;7.87;100.00
72721;BME280;60835;50.974;10.322;2024-02-21T06:56:41;98508.03;;;7.67;100.00
72721;BME280;60835;50.974;10.322;2024-02-21T06:59:11;98498.94;;;7.90;100.00
72721;BME280;60835;50.974;10.322;2024-02-21T07:01:48;98461.53;;;7.47;100.00
72721;BME280;60835;50.974;10.322;2024-02-21T07:04:18;98506.94;;;7.79;100.00
72721;BME280;60835;50.974;10.322;2024-02-21T07:06:48;98514.16;;;7.77;100.00
72721;BME280;60835;50.974;10.322;2024-02-21T07:09:18;98519.44;;;7.77;100.00
72721;BME280;60835;50.974;10.322;2024-02-21T07:11:45;98509.75;;;7.87;100.00
72721;BME280;60835;50.974;10.322;2024-02-21T07:14:14;98522.75;;;7.79;100.00
72721;BME280;60835;50.974;10.322;2024-02-21T07:16:41;98532.91;;;7.93;100.00
72721;BME280;60835;50.974;10.322;2024-02-21T07:19:11;98520.44;;;7.95;100.00
72721;BME280;60835;50.974;10.322;2024-02-21T07:21:38;98532.06;;;7.83;100.00
72721;BME280;60835;50.974;10.322;2024-02-21T07:24:08;98532.38;;;7.99;100.00
72721;BME280;60835;50.974;10.322;2024-02-21T07:26:44;98531.13;;;8.03;100.00
72721;BME280;60835;50.974;10.322;2024-02-21T07:29:14;98538.56;;;7.79;100.00
72721;BME280;60835;50.974;10.322;2024-02-21T07:31:48;98530.81;;;7.87;100.00
72721;BME280;60835;50.974;10.322;2024-02-21T07:34:21;98531.06;;;7.84;100.00
72721;BME280;60835;50.974;10.322;2024-02-21T07:36:50;98525.38;;;7.79;100.00
72721;BME280;60835;50.974;10.322;2024-02-21T07:39:17;98524.16;;;7.83;100.00
72721;BME280;60835;50.974;10.322;2024-02-21T07:41:51;98508.06;;;7.76;100.00
72721;BME280;60835;50.974;10.322;2024-02-21T07:44:23;98496.72;;;7.95;100.00
72721;BME280;60835;50.974;10.322;2024-02-21T07:46:51;98495.06;;;7.94;100.00
72721;BME280;60835;50.974;10.322;2024-02-21T07:49:24;98494.50;;;8.00;100.00
72721;BME280;60835;50.974;10.322;2024-02-21T07:52:00;98499.78;;;8.00;100.00
72721;BME280;60835;50.974;10.322;2024-02-21T07:54:27;98512.00;;;7.91;100.00
72721;BME280;60835;50.974;10.322;2024-02-21T07:56:57;98493.56;;;8.11;100.00
72721;BME280;60835;50.974;10.322;2024-02-21T07:59:33;98492.59;;;8.21;100.00
72721;BME280;60835;50.974;10.322;2024-02-21T08:02:01;98505.09;;;8.29;100.00
72721;BME280;60835;50.974;10.322;2024-02-21T08:04:46;98510.19;;;8.11;100.00
72721;BME280;60835;50.974;10.322;2024-02-21T08:07:27;98514.53;;;8.31;100.00
72721;BME280;60835;50.974;10.322;2024-02-21T08:10:02;98512.56;;;8.14;100.00
72721;BME280;60835;50.974;10.322;2024-02-21T08:12:33;98504.00;;;8.31;100.00
72721;BME280;60835;50.974;10.322;2024-02-21T08:15:06;98511.72;;;8.04;100.00
72721;BME280;60835;50.974;10.322;2024-02-21T08:17:48;98508.94;;;8.06;100.00
72721;BME280;60835;50.974;10.322;2024-02-21T08:20:25;98494.00;;;8.25;100.00
72721;BME280;60835;50.974;10.322;2024-02-21T08:22:57;98501.22;;;8.42;100.00
72721;BME280;60835;50.974;10.322;2024-02-21T08:25:25;98511.03;;;8.21;100.00
72721;BME280;60835;50.974;10.322;2024-02-21T08:27:57;98502.63;;;8.27;100.00
72721;BME280;60835;50.974;10.322;2024-02-21T08:30:25;98494.72;;;8.27;100.00
72721;BME280;60835;50.974;10.322;2024-02-21T08:33:02;98503.41;;;8.18;100.00
72721;BME280;60835;50.974;10.322;2024-02-21T08:35:51;98497.03;;;8.11;100.00
72721;BME280;60835;50.974;10.322;2024-02-21T08:38:18;98497.03;;;8.11;100.00
72721;BME280;60835;50.974;10.322;2024-02-21T08:40:48;98489.66;;;8.05;100.00
72721;BME280;60835;50.974;10.322;2024-02-21T08:43:25;98483.72;;;8.22;100.00
72721;BME280;60835;50.974;10.322;2024-02-21T08:45:59;98476.00;;;8.30;100.00
72721;BME280;60835;50.974;10.322;2024-02-21T08:48:27;98473.72;;;8.07;100.00
72721;BME280;60835;50.974;10.322;2024-02-21T08:50:58;98454.59;;;8.14;100.00
72721;BME280;60835;50.974;10.322;2024-02-21T08:53:29;98409.66;;;7.87;100.00
72721;BME280;60835;50.974;10.322;2024-02-21T08:55:58;98441.72;;;8.30;100.00
72721;BME280;60835;50.974;10.322;2024-02-21T08:58:25;98444.22;;;8.41;100.00
72721;BME280;60835;50.974;10.322;2024-02-21T09:00:53;98440.19;;;8.37;100.00
72721;BME280;60835;50.974;10.322;2024-02-21T09:03:21;98426.31;;;8.35;100.00
72721;BME280;60835;50.974;10.322;2024-02-21T09:05:51;98435.88;;;8.46;100.00
72721;BME280;60835;50.974;10.322;2024-02-21T09:08:28;98427.44;;;8.33;100.00
72721;BME280;60835;50.974;10.322;2024-02-21T09:10:57;98423.13;;;8.32;100.00
72721;BME280;60835;50.974;10.322;2024-02-21T09:13:31;98416.56;;;8.26;100.00
72721;BME280;60835;50.974;10.322;2024-02-21T09:16:01;98424.13;;;8.31;100.00
72721;BME280;60835;50.974;10.322;2024-02-21T09:18:31;98424.66;;;8.15;100.00
72721;BME280;60835;50.974;10.322;2024-02-21T09:20:58;98417.41;;;7.98;100.00
72721;BME280;60835;50.974;10.322;2024-02-21T09:23:34;98400.91;;;8.06;100.00
72721;BME280;60835;50.974;10.322;2024-02-21T09:26:01;98389.97;;;8.20;100.00
72721;BME280;60835;50.974;10.322;2024-02-21T09:28:54;98373.59;;;8.35;100.00
72721;BME280;60835;50.974;10.322;2024-02-21T09:31:49;98393.00;;;7.86;100.00
72721;BME280;60835;50.974;10.322;2024-02-21T09:34:34;98378.72;;;8.08;100.00
72721;BME280;60835;50.974;10.322;2024-02-21T09:37:02;98398.59;;;7.83;100.00
72721;BME280;60835;50.974;10.322;2024-02-21T09:39:32;98393.47;;;7.91;100.00
72721;BME280;60835;50.974;10.322;2024-02-21T09:42:06;98379.03;;;7.86;100.00
72721;BME280;60835;50.974;10.322;2024-02-21T09:44:40;98329.00;;;7.86;100.00
72721;BME280;60835;50.974;10.322;2024-02-21T09:47:10;98358.09;;;7.94;100.00
72721;BME280;60835;50.974;10.322;2024-02-21T09:49:43;98362.50;;;7.84;100.00
72721;BME280;60835;50.974;10.322;2024-02-21T09:52:15;98351.41;;;8.09;100.00
72721;BME280;60835;50.974;10.322;2024-02-21T09:54:49;98366.69;;;7.96;100.00
72721;BME280;60835;50.974;10.322;2024-02-21T09:57:23;98351.78;;;8.24;100.00
72721;BME280;60835;50.974;10.322;2024-02-21T09:59:52;98364.16;;;8.23;100.00
72721;BME280;60835;50.974;10.322;2024-02-21T10:02:35;98350.84;;;8.44;100.00
72721;BME280;60835;50.974;10.322;2024-02-21T10:05:07;98384.13;;;8.26;100.00
72721;BME280;60835;50.974;10.322;2024-02-21T10:07:35;98376.75;;;8.48;100.00
72721;BME280;60835;50.974;10.322;2024-02-21T10:10:19;98390.00;;;8.76;100.00
72721;BME280;60835;50.974;10.322;2024-02-21T10:12:53;98403.78;;;8.70;100.00
72721;BME280;60835;50.974;10.322;2024-02-21T10:15:25;98420.44;;;8.61;100.00
72721;BME280;60835;50.974;10.322;2024-02-21T10:18:17;98439.22;;;8.57;100.00
72721;BME280;60835;50.974;10.322;2024-02-21T10:21:20;98461.78;;;8.70;100.00
72721;BME280;60835;50.974;10.322;2024-02-21T10:23:51;98471.19;;;8.91;100.00
72721;BME280;60835;50.974;10.322;2024-02-21T10:26:24;98497.81;;;8.98;100.00
72721;BME280;60835;50.974;10.322;2024-02-21T10:29:01;98517.03;;;8.81;100.00
72721;BME280;60835;50.974;10.322;2024-02-21T10:31:30;98521.44;;;8.99;100.00
72721;BME280;60835;50.974;10.322;2024-02-21T10:34:01;98548.78;;;9.08;100.00
72721;BME280;60835;50.974;10.322;2024-02-21T10:36:32;98539.44;;;9.23;100.00
72721;BME280;60835;50.974;10.322;2024-02-21T10:39:01;98543.31;;;9.19;100.00
72721;BME280;60835;50.974;10.322;2024-02-21T10:41:30;98544.06;;;9.58;100.00
72721;BME280;60835;50.974;10.322;2024-02-21T10:44:01;98548.16;;;9.70;100.00
72721;BME280;60835;50.974;10.322;2024-02-21T10:46:32;98518.47;;;10.13;100.00
72721;BME280;60835;50.974;10.322;2024-02-21T10:49:10;98498.34;;;11.16;100.00
72721;BME280;60835;50.974;10.322;2024-02-21T10:51:42;98464.22;;;10.44;100.00
72721;BME280;60835;50.974;10.322;2024-02-21T10:56:56;98439.38;;;11.40;100.00
72721;BME280;60835;50.974;10.322;2024-02-21T10:59:24;98408.00;;;10.42;100.00
72721;BME280;60835;50.974;10.322;2024-02-21T11:01:52;98402.00;;;10.32;100.00
72721;BME280;60835;50.974;10.322;2024-02-21T11:04:25;98361.81;;;11.22;100.00
72721;BME280;60835;50.974;10.322;2024-02-21T11:06:52;98335.44;;;11.54;100.00
72721;BME280;60835;50.974;10.322;2024-02-21T11:09:29;98294.03;;;11.53;100.00
72721;BME280;60835;50.974;10.322;2024-02-21T11:11:57;98271.41;;;11.00;100.00
72721;BME280;60835;50.974;10.322;2024-02-21T11:14:26;98252.59;;;11.44;100.00
72721;BME280;60835;50.974;10.322;2024-02-21T11:16:54;98219.53;;;11.56;100.00
72721;BME280;60835;50.974;10.322;2024-02-21T11:19:26;98206.25;;;11.24;100.00
72721;BME280;60835;50.974;10.322;2024-02-21T11:21:54;98144.28;;;11.97;100.00
72721;BME280;60835;50.974;10.322;2024-02-21T11:24:32;98156.75;;;11.08;100.00
72721;BME280;60835;50.974;10.322;2024-02-21T11:27:19;98161.06;;;10.93;100.00
72721;BME280;60835;50.974;10.322;2024-02-21T11:29:48;98147.28;;;11.86;100.00
72721;BME280;60835;50.974;10.322;2024-02-21T11:32:18;98133.72;;;11.81;100.00
72721;BME280;60835;50.974;10.322;2024-02-21T11:35:02;98117.69;;;11.75;100.00
72721;BME280;60835;50.974;10.322;2024-02-21T11:37:35;98119.84;;;11.47;100.00
72721;BME280;60835;50.974;10.322;2024-02-21T11:40:04;98114.06;;;11.03;100.00
72721;BME280;60835;50.974;10.322;2024-02-21T11:42:33;98122.50;;;10.90;100.00
72721;BME280;60835;50.974;10.322;2024-02-21T11:45:00;98107.09;;;10.94;100.00
72721;BME280;60835;50.974;10.322;2024-02-21T11:47:30;98058.72;;;11.73;100.00
72721;BME280;60835;50.974;10.322;2024-02-21T11:49:57;98084.41;;;10.67;100.00
72721;BME280;60835;50.974;10.322;2024-02-21T11:52:25;98076.16;;;11.27;100.00
72721;BME280;60835;50.974;10.322;2024-02-21T11:54:53;98084.63;;;10.16;100.00
72721;BME280;60835;50.974;10.322;2024-02-21T11:57:21;98062.41;;;11.47;100.00
72721;BME280;60835;50.974;10.322;2024-02-21T11:59:48;98025.53;;;11.22;100.00
72721;BME280;60835;50.974;10.322;2024-02-21T12:02:19;98074.88;;;11.07;100.00
72721;BME280;60835;50.974;10.322;2024-02-21T12:04:45;98025.47;;;11.54;100.00
72721;BME280;60835;50.974;10.322;2024-02-21T12:07:14;98014.78;;;11.15;100.00
72721;BME280;60835;50.974;10.322;2024-02-21T12:09:41;98006.56;;;12.35;100.00
72721;BME280;60835;50.974;10.322;2024-02-21T12:12:08;98062.47;;;11.86;100.00
72721;BME280;60835;50.974;10.322;2024-02-21T12:14:35;98011.81;;;11.81;100.00
72721;BME280;60835;50.974;10.322;2024-02-21T12:17:02;98090.72;;;12.49;100.00
72721;BME280;60835;50.974;10.322;2024-02-21T12:19:33;98248.13;;;12.33;100.00
72721;BME280;60835;50.974;10.322;2024-02-21T12:22:00;98252.38;;;12.97;100.00
72721;BME280;60835;50.974;10.322;2024-02-21T12:24:28;98318.69;;;13.75;100.00
72721;BME280;60835;50.974;10.322;2024-02-21T12:26:56;98404.06;;;13.49;100.00
72721;BME280;60835;50.974;10.322;2024-02-21T12:29:23;98487.25;;;13.58;100.00
72721;BME280;60835;50.974;10.322;2024-02-21T12:31:54;98516.53;;;13.88;100.00
72721;BME280;60835;50.974;10.322;2024-02-21T12:34:23;98468.13;;;12.83;100.00
72721;BME280;60835;50.974;10.322;2024-02-21T12:37:04;98447.22;;;13.12;100.00
72721;BME280;60835;50.974;10.322;2024-02-21T12:39:30;98571.81;;;14.09;100.00
72721;BME280;60835;50.974;10.322;2024-02-21T12:41:59;98533.19;;;12.55;100.00
72721;BME280;60835;50.974;10.322;2024-02-21T12:44:25;98475.06;;;13.24;100.00
72721;BME280;60835;50.974;10.322;2024-02-21T12:46:52;98606.19;;;12.67;100.00
72721;BME280;60835;50.974;10.322;2024-02-21T12:49:21;98557.75;;;12.97;100.00
72721;BME280;60835;50.974;10.322;2024-02-21T12:51:48;98634.47;;;13.40;100.00
72721;BME280;60835;50.974;10.322;2024-02-21T12:54:15;98634.63;;;13.47;100.00
72721;BME280;60835;50.974;10.322;2024-02-21T12:56:42;98685.06;;;13.87;100.00
72721;BME280;60835;50.974;10.322;2024-02-21T12:59:08;98723.94;;;12.66;100.00
72721;BME280;60835;50.974;10.322;2024-02-21T13:01:38;98607.41;;;12.31;100.00
72721;BME280;60835;50.974;10.322;2024-02-21T13:04:05;98507.97;;;12.67;100.00
72721;BME280;60835;50.974;10.322;2024-02-21T13:06:32;98621.81;;;13.51;100.00
72721;BME280;60835;50.974;10.322;2024-02-21T13:08:59;98571.69;;;12.83;100.00